VOZ533 YSSY-YBCG
Flight info
| Callsign | VOZ533 |
|---|---|
| Flight time | 1h 1m |
| Altitude | 33000 |
| Route | OLSEM Y193 BANDA Y43 GOMOL |
| Aircraft | B738/M-SDE2E3FGHIRWXY/LB1 |
Departure
| Time | 2026-04-26 07:07 |
|---|---|
| Airport | Sydney Kingsford Smith International Airport (YSSY) |
Arrival
| Time | 2026-04-26 08:08 |
|---|---|
| Airport | Gold Coast Airport (YBCG) |
| Time | Latitude | Longitude | Altitude | Speed | Heading |
|---|---|---|---|---|---|
| 2026-04-26 06:31 | -33.93675 | 151.17987 | 29 ft | 0 kts | 280° |
| 2026-04-26 06:44 | -33.93676 | 151.17994 | 29 ft | 4 kts | 279° |
| 2026-04-26 06:44 | -33.93679 | 151.18026 | 29 ft | 4 kts | 263° |
| 2026-04-26 06:44 | -33.93672 | 151.18049 | 29 ft | 4 kts | 197° |
| 2026-04-26 06:45 | -33.93666 | 151.18051 | 29 ft | 1 kts | 179° |
| 2026-04-26 06:49 | -33.93669 | 151.18051 | 29 ft | 2 kts | 175° |
| 2026-04-26 06:49 | -33.93702 | 151.18057 | 29 ft | 9 kts | 172° |
| 2026-04-26 06:49 | -33.93775 | 151.18034 | 29 ft | 14 kts | 239° |
| 2026-04-26 06:50 | -33.93806 | 151.17927 | 29 ft | 13 kts | 252° |
| 2026-04-26 06:50 | -33.93830 | 151.17822 | 29 ft | 13 kts | 256° |
| 2026-04-26 06:50 | -33.93898 | 151.17780 | 29 ft | 13 kts | 168° |
| 2026-04-26 06:50 | -33.93982 | 151.17803 | 28 ft | 13 kts | 168° |
| 2026-04-26 06:51 | -33.94086 | 151.17830 | 28 ft | 19 kts | 168° |
| 2026-04-26 06:51 | -33.94364 | 151.17899 | 29 ft | 20 kts | 168° |
| 2026-04-26 06:51 | -33.94494 | 151.17886 | 29 ft | 19 kts | 192° |
| 2026-04-26 06:52 | -33.94621 | 151.17908 | 29 ft | 18 kts | 167° |
| 2026-04-26 06:52 | -33.94742 | 151.17941 | 29 ft | 18 kts | 167° |
| 2026-04-26 06:52 | -33.94862 | 151.17971 | 29 ft | 17 kts | 167° |
| 2026-04-26 06:52 | -33.94977 | 151.18001 | 29 ft | 17 kts | 168° |
| 2026-04-26 06:53 | -33.95082 | 151.18045 | 29 ft | 16 kts | 132° |
| 2026-04-26 06:53 | -33.95087 | 151.18170 | 29 ft | 15 kts | 77° |
| 2026-04-26 06:53 | -33.95069 | 151.18267 | 29 ft | 8 kts | 78° |
| 2026-04-26 06:53 | -33.95061 | 151.18312 | 29 ft | 2 kts | 77° |
| 2026-04-26 06:54 | -33.95061 | 151.18316 | 29 ft | 2 kts | 77° |
| 2026-04-26 06:54 | -33.95055 | 151.18345 | 29 ft | 4 kts | 77° |
| 2026-04-26 06:54 | -33.95048 | 151.18381 | 29 ft | 4 kts | 77° |
| 2026-04-26 06:54 | -33.95041 | 151.18417 | 29 ft | 4 kts | 77° |
| 2026-04-26 06:55 | -33.95041 | 151.18466 | 29 ft | 8 kts | 104° |
| 2026-04-26 06:55 | -33.95094 | 151.18523 | 29 ft | 14 kts | 144° |
| 2026-04-26 06:55 | -33.95178 | 151.18612 | 29 ft | 18 kts | 136° |
| 2026-04-26 06:55 | -33.95276 | 151.18699 | 29 ft | 17 kts | 154° |
| 2026-04-26 06:56 | -33.95388 | 151.18738 | 29 ft | 17 kts | 167° |
| 2026-04-26 06:56 | -33.95499 | 151.18768 | 29 ft | 16 kts | 167° |
| 2026-04-26 06:56 | -33.95605 | 151.18796 | 29 ft | 15 kts | 167° |
| 2026-04-26 06:56 | -33.95708 | 151.18823 | 29 ft | 15 kts | 168° |
| 2026-04-26 06:57 | -33.95807 | 151.18847 | 29 ft | 15 kts | 168° |
| 2026-04-26 06:57 | -33.95922 | 151.18878 | 29 ft | 18 kts | 167° |
| 2026-04-26 06:57 | -33.96059 | 151.18913 | 29 ft | 22 kts | 168° |
| 2026-04-26 06:57 | -33.96213 | 151.18953 | 29 ft | 23 kts | 167° |
| 2026-04-26 06:58 | -33.96365 | 151.18994 | 29 ft | 22 kts | 168° |
| 2026-04-26 06:58 | -33.96514 | 151.19031 | 29 ft | 21 kts | 168° |
| 2026-04-26 06:58 | -33.96657 | 151.19067 | 29 ft | 21 kts | 167° |
| 2026-04-26 06:58 | -33.96787 | 151.19063 | 29 ft | 17 kts | 181° |
| 2026-04-26 06:59 | -33.96895 | 151.19085 | 29 ft | 15 kts | 168° |
| 2026-04-26 06:59 | -33.96995 | 151.19110 | 29 ft | 13 kts | 167° |
| 2026-04-26 06:59 | -33.97067 | 151.19128 | 29 ft | 10 kts | 168° |
| 2026-04-26 06:59 | -33.97118 | 151.19166 | 29 ft | 2 kts | 119° |
| 2026-04-26 07:00 | -33.97120 | 151.19173 | 29 ft | 0 kts | 112° |
| 2026-04-26 07:02 | -33.97122 | 151.19180 | 29 ft | 3 kts | 107° |
| 2026-04-26 07:03 | -33.97123 | 151.19205 | 29 ft | 2 kts | 84° |
| 2026-04-26 07:03 | -33.97118 | 151.19235 | 28 ft | 5 kts | 77° |
| 2026-04-26 07:03 | -33.97114 | 151.19255 | 28 ft | 0 kts | 76° |
| 2026-04-26 07:05 | -33.97108 | 151.19285 | 27 ft | 9 kts | 77° |
| 2026-04-26 07:06 | -33.97091 | 151.19365 | 27 ft | 7 kts | 61° |
| 2026-04-26 07:06 | -33.97043 | 151.19368 | 26 ft | 10 kts | 345° |
| 2026-04-26 07:06 | -33.96825 | 151.19311 | 24 ft | 72 kts | 348° |
| 2026-04-26 07:06 | -33.96055 | 151.19118 | 42 ft | 149 kts | 349° |
| 2026-04-26 07:07 | -33.94959 | 151.18825 | 732 ft | 166 kts | 352° |
| 2026-04-26 07:07 | -33.93863 | 151.18766 | 1950 ft | 152 kts | 13° |
| 2026-04-26 07:07 | -33.92858 | 151.19248 | 2709 ft | 171 kts | 30° |
| 2026-04-26 07:07 | -33.91762 | 151.20147 | 3054 ft | 206 kts | 34° |
| 2026-04-26 07:08 | -33.90534 | 151.21225 | 3442 ft | 227 kts | 34° |
| 2026-04-26 07:08 | -33.89221 | 151.22378 | 4041 ft | 238 kts | 35° |
| 2026-04-26 07:08 | -33.87859 | 151.23567 | 4830 ft | 243 kts | 35° |
| 2026-04-26 07:08 | -33.86493 | 151.24754 | 5600 ft | 249 kts | 35° |
| 2026-04-26 07:09 | -33.85024 | 151.26028 | 6174 ft | 269 kts | 36° |
| 2026-04-26 07:09 | -33.83677 | 151.27628 | 6999 ft | 277 kts | 57° |
| 2026-04-26 07:09 | -33.82890 | 151.29755 | 7991 ft | 278 kts | 71° |
| 2026-04-26 07:09 | -33.82296 | 151.31953 | 8966 ft | 282 kts | 72° |
| 2026-04-26 07:10 | -33.79740 | 151.38617 | 10842 ft | 327 kts | 51° |
| 2026-04-26 07:11 | -33.76673 | 151.43069 | 11810 ft | 357 kts | 50° |
| 2026-04-26 07:11 | -33.75080 | 151.45379 | 12673 ft | 360 kts | 51° |
| 2026-04-26 07:11 | -33.73472 | 151.47729 | 13493 ft | 365 kts | 51° |
| 2026-04-26 07:11 | -33.71869 | 151.50084 | 14250 ft | 370 kts | 51° |
| 2026-04-26 07:12 | -33.70228 | 151.52502 | 15006 ft | 373 kts | 51° |
| 2026-04-26 07:12 | -33.68590 | 151.54916 | 15803 ft | 375 kts | 51° |
| 2026-04-26 07:12 | -33.66935 | 151.57355 | 16567 ft | 377 kts | 51° |
| 2026-04-26 07:12 | -33.65284 | 151.59766 | 17310 ft | 381 kts | 50° |
| 2026-04-26 07:13 | -33.63277 | 151.61884 | 17979 ft | 387 kts | 35° |
| 2026-04-26 07:13 | -33.61003 | 151.63645 | 18675 ft | 391 kts | 33° |
| 2026-04-26 07:13 | -33.58689 | 151.65396 | 19286 ft | 394 kts | 33° |
| 2026-04-26 07:13 | -33.56363 | 151.67185 | 19888 ft | 398 kts | 34° |
| 2026-04-26 07:14 | -33.54032 | 151.69012 | 20490 ft | 401 kts | 34° |
| 2026-04-26 07:14 | -33.51686 | 151.70865 | 21083 ft | 405 kts | 34° |
| 2026-04-26 07:14 | -33.49245 | 151.72511 | 21637 ft | 410 kts | 26° |
| 2026-04-26 07:14 | -33.46535 | 151.73671 | 22194 ft | 415 kts | 16° |
| 2026-04-26 07:15 | -33.43708 | 151.74518 | 22755 ft | 418 kts | 15° |
| 2026-04-26 07:15 | -33.40899 | 151.75349 | 23273 ft | 422 kts | 15° |
| 2026-04-26 07:15 | -33.38033 | 151.76230 | 23778 ft | 426 kts | 15° |
| 2026-04-26 07:15 | -33.35151 | 151.77142 | 24222 ft | 430 kts | 16° |
| 2026-04-26 07:16 | -33.32247 | 151.78078 | 24665 ft | 433 kts | 16° |
| 2026-04-26 07:16 | -33.29331 | 151.79024 | 25090 ft | 436 kts | 16° |
| 2026-04-26 07:16 | -33.26382 | 151.79982 | 25496 ft | 439 kts | 16° |
| 2026-04-26 07:16 | -33.23454 | 151.80932 | 25890 ft | 442 kts | 16° |
| 2026-04-26 07:17 | -33.20470 | 151.81897 | 26284 ft | 446 kts | 16° |
| 2026-04-26 07:17 | -33.17465 | 151.82868 | 26668 ft | 449 kts | 16° |
| 2026-04-26 07:17 | -33.14434 | 151.83844 | 27042 ft | 452 kts | 16° |
| 2026-04-26 07:17 | -33.11386 | 151.84824 | 27408 ft | 455 kts | 16° |
| 2026-04-26 07:18 | -33.08313 | 151.85812 | 27783 ft | 458 kts | 16° |
| 2026-04-26 07:18 | -33.05224 | 151.86804 | 28126 ft | 461 kts | 16° |
| 2026-04-26 07:18 | -33.02150 | 151.87790 | 28465 ft | 464 kts | 16° |
| 2026-04-26 07:18 | -32.98987 | 151.88805 | 28810 ft | 467 kts | 15° |
| 2026-04-26 07:19 | -32.95876 | 151.89802 | 29148 ft | 469 kts | 15° |
| 2026-04-26 07:19 | -32.92707 | 151.90817 | 29460 ft | 472 kts | 15° |
| 2026-04-26 07:19 | -32.89512 | 151.91840 | 29802 ft | 474 kts | 15° |
| 2026-04-26 07:19 | -32.86361 | 151.92847 | 30250 ft | 474 kts | 15° |
| 2026-04-26 07:20 | -32.83175 | 151.93865 | 30675 ft | 472 kts | 15° |
| 2026-04-26 07:20 | -32.80000 | 151.94879 | 31106 ft | 471 kts | 15° |
| 2026-04-26 07:20 | -32.76835 | 151.95888 | 31492 ft | 470 kts | 15° |
| 2026-04-26 07:20 | -32.73668 | 151.96899 | 31856 ft | 470 kts | 15° |
| 2026-04-26 07:21 | -32.70540 | 151.97895 | 32203 ft | 470 kts | 15° |
| 2026-04-26 07:21 | -32.67375 | 151.98903 | 32588 ft | 469 kts | 15° |
| 2026-04-26 07:21 | -32.64212 | 151.99909 | 32986 ft | 468 kts | 15° |
| 2026-04-26 07:21 | -32.61067 | 152.00909 | 33263 ft | 469 kts | 15° |
| 2026-04-26 07:22 | -32.57934 | 152.01905 | 33247 ft | 472 kts | 15° |
| 2026-04-26 07:22 | -32.51605 | 152.03913 | 33246 ft | 468 kts | 15° |
| 2026-04-26 07:23 | -32.45317 | 152.05906 | 33258 ft | 467 kts | 15° |
| 2026-04-26 07:23 | -32.40082 | 152.07563 | 33257 ft | 467 kts | 15° |
| 2026-04-26 07:24 | -32.33788 | 152.09552 | 33259 ft | 467 kts | 15° |
| 2026-04-26 07:24 | -32.27535 | 152.11526 | 33260 ft | 468 kts | 15° |
| 2026-04-26 07:25 | -32.20214 | 152.13833 | 33256 ft | 468 kts | 15° |
| 2026-04-26 07:25 | -32.14920 | 152.15499 | 33259 ft | 469 kts | 15° |
| 2026-04-26 07:26 | -32.08639 | 152.17472 | 33260 ft | 469 kts | 15° |
| 2026-04-26 07:26 | -32.02299 | 152.19462 | 33263 ft | 470 kts | 15° |
| 2026-04-26 07:27 | -31.95988 | 152.21440 | 33260 ft | 471 kts | 15° |
| 2026-04-26 07:27 | -31.89654 | 152.23422 | 33266 ft | 471 kts | 15° |
| 2026-04-26 07:28 | -31.83345 | 152.25393 | 33262 ft | 471 kts | 15° |
| 2026-04-26 07:28 | -31.76999 | 152.27373 | 33261 ft | 472 kts | 15° |
| 2026-04-26 07:29 | -31.70625 | 152.29359 | 33261 ft | 472 kts | 15° |
| 2026-04-26 07:29 | -31.64304 | 152.31326 | 33266 ft | 472 kts | 15° |
| 2026-04-26 07:30 | -31.57944 | 152.33302 | 33266 ft | 472 kts | 15° |
| 2026-04-26 07:30 | -31.51584 | 152.35275 | 33272 ft | 472 kts | 15° |
| 2026-04-26 07:31 | -31.45220 | 152.37247 | 33268 ft | 473 kts | 15° |
| 2026-04-26 07:31 | -31.38891 | 152.39205 | 33280 ft | 473 kts | 15° |
| 2026-04-26 07:32 | -31.32508 | 152.41177 | 33273 ft | 473 kts | 14° |
| 2026-04-26 07:32 | -31.26153 | 152.43138 | 33269 ft | 473 kts | 14° |
| 2026-04-26 07:33 | -31.19810 | 152.45093 | 33268 ft | 473 kts | 14° |
| 2026-04-26 07:33 | -31.13429 | 152.47056 | 33266 ft | 474 kts | 14° |
| 2026-04-26 07:34 | -31.07040 | 152.49019 | 33264 ft | 474 kts | 14° |
| 2026-04-26 07:34 | -31.00656 | 152.50978 | 33274 ft | 474 kts | 14° |
| 2026-04-26 07:35 | -30.94311 | 152.52923 | 33274 ft | 473 kts | 14° |
| 2026-04-26 07:35 | -30.87939 | 152.54873 | 33268 ft | 473 kts | 14° |
| 2026-04-26 07:36 | -30.81561 | 152.56822 | 33267 ft | 473 kts | 14° |
| 2026-04-26 07:36 | -30.75356 | 152.59266 | 33267 ft | 473 kts | 21° |
| 2026-04-26 07:37 | -30.69273 | 152.62174 | 33270 ft | 473 kts | 22° |
| 2026-04-26 07:37 | -30.63180 | 152.65084 | 33266 ft | 473 kts | 22° |
| 2026-04-26 07:38 | -30.57102 | 152.67921 | 33267 ft | 473 kts | 21° |
| 2026-04-26 07:38 | -30.50971 | 152.70754 | 33265 ft | 474 kts | 21° |
| 2026-04-26 07:39 | -30.44828 | 152.73586 | 33260 ft | 474 kts | 21° |
| 2026-04-26 07:39 | -30.38720 | 152.76400 | 33261 ft | 475 kts | 21° |
| 2026-04-26 07:40 | -30.32573 | 152.79231 | 33254 ft | 475 kts | 21° |
| 2026-04-26 07:40 | -30.26419 | 152.82061 | 33249 ft | 475 kts | 21° |
| 2026-04-26 07:41 | -30.20297 | 152.84873 | 33254 ft | 476 kts | 21° |
| 2026-04-26 07:41 | -30.14122 | 152.87706 | 33254 ft | 476 kts | 21° |
| 2026-04-26 07:42 | -30.07987 | 152.90513 | 33253 ft | 476 kts | 21° |
| 2026-04-26 07:42 | -30.01816 | 152.93328 | 33255 ft | 477 kts | 20° |
| 2026-04-26 07:43 | -29.95642 | 152.96141 | 33245 ft | 477 kts | 20° |
| 2026-04-26 07:43 | -29.89459 | 152.98955 | 33247 ft | 477 kts | 20° |
| 2026-04-26 07:44 | -29.83308 | 153.01752 | 33248 ft | 477 kts | 20° |
| 2026-04-26 07:44 | -29.77130 | 153.04558 | 33241 ft | 477 kts | 20° |
| 2026-04-26 07:45 | -29.70975 | 153.07350 | 33245 ft | 477 kts | 20° |
| 2026-04-26 07:45 | -29.64774 | 153.10157 | 32749 ft | 484 kts | 20° |
| 2026-04-26 07:45 | -29.61626 | 153.11581 | 32068 ft | 485 kts | 20° |
| 2026-04-26 07:46 | -29.58490 | 153.12999 | 31288 ft | 484 kts | 21° |
| 2026-04-26 07:46 | -29.55356 | 153.14415 | 30490 ft | 483 kts | 21° |
| 2026-04-26 07:46 | -29.52212 | 153.15835 | 29543 ft | 484 kts | 21° |
| 2026-04-26 07:46 | -29.49095 | 153.17242 | 28926 ft | 479 kts | 21° |
| 2026-04-26 07:47 | -29.46021 | 153.18629 | 28279 ft | 483 kts | 21° |
| 2026-04-26 07:47 | -29.42871 | 153.20048 | 27640 ft | 486 kts | 21° |
| 2026-04-26 07:47 | -29.39706 | 153.21473 | 26985 ft | 487 kts | 21° |
| 2026-04-26 07:47 | -29.36564 | 153.22888 | 26340 ft | 483 kts | 21° |
| 2026-04-26 07:48 | -29.33455 | 153.24285 | 25711 ft | 476 kts | 22° |
| 2026-04-26 07:48 | -29.30384 | 153.25665 | 25070 ft | 469 kts | 22° |
| 2026-04-26 07:48 | -29.27409 | 153.27001 | 24470 ft | 462 kts | 22° |
| 2026-04-26 07:48 | -29.24432 | 153.28338 | 23842 ft | 457 kts | 22° |
| 2026-04-26 07:49 | -29.21483 | 153.29661 | 23116 ft | 451 kts | 22° |
| 2026-04-26 07:49 | -29.18577 | 153.30964 | 22460 ft | 444 kts | 22° |
| 2026-04-26 07:49 | -29.15721 | 153.32243 | 21857 ft | 437 kts | 22° |
| 2026-04-26 07:50 | -29.10143 | 153.34740 | 20660 ft | 424 kts | 22° |
| 2026-04-26 07:50 | -29.07406 | 153.35965 | 20081 ft | 419 kts | 22° |
| 2026-04-26 07:50 | -29.04708 | 153.37171 | 19512 ft | 414 kts | 22° |
| 2026-04-26 07:50 | -29.02079 | 153.38345 | 18960 ft | 409 kts | 22° |
| 2026-04-26 07:51 | -28.99436 | 153.39526 | 18373 ft | 404 kts | 23° |
| 2026-04-26 07:51 | -28.96831 | 153.40689 | 17745 ft | 400 kts | 23° |
| 2026-04-26 07:51 | -28.94256 | 153.41838 | 17155 ft | 394 kts | 23° |
| 2026-04-26 07:51 | -28.91711 | 153.42973 | 16599 ft | 389 kts | 23° |
| 2026-04-26 07:52 | -28.89202 | 153.44092 | 16049 ft | 385 kts | 23° |
| 2026-04-26 07:52 | -28.86746 | 153.45186 | 15510 ft | 381 kts | 23° |
| 2026-04-26 07:52 | -28.84289 | 153.46280 | 14976 ft | 377 kts | 23° |
| 2026-04-26 07:52 | -28.81858 | 153.47363 | 14579 ft | 370 kts | 23° |
| 2026-04-26 07:53 | -28.79468 | 153.48432 | 14082 ft | 366 kts | 24° |
| 2026-04-26 07:53 | -28.77107 | 153.49489 | 13523 ft | 363 kts | 24° |
| 2026-04-26 07:53 | -28.74786 | 153.50528 | 12979 ft | 360 kts | 24° |
| 2026-04-26 07:53 | -28.72460 | 153.51568 | 12467 ft | 357 kts | 24° |
| 2026-04-26 07:54 | -28.70129 | 153.52609 | 12288 ft | 358 kts | 24° |
| 2026-04-26 07:54 | -28.67842 | 153.53629 | 12219 ft | 346 kts | 24° |
| 2026-04-26 07:54 | -28.65653 | 153.54602 | 12200 ft | 329 kts | 24° |
| 2026-04-26 07:54 | -28.63568 | 153.55526 | 12188 ft | 313 kts | 24° |
| 2026-04-26 07:55 | -28.61609 | 153.56393 | 12184 ft | 299 kts | 24° |
| 2026-04-26 07:55 | -28.59669 | 153.57253 | 11604 ft | 305 kts | 24° |
| 2026-04-26 07:55 | -28.57658 | 153.58148 | 10976 ft | 308 kts | 24° |
| 2026-04-26 07:55 | -28.55682 | 153.59022 | 10632 ft | 297 kts | 24° |
| 2026-04-26 07:56 | -28.53799 | 153.59852 | 10394 ft | 285 kts | 24° |
| 2026-04-26 07:56 | -28.51968 | 153.60651 | 10021 ft | 279 kts | 23° |
| 2026-04-26 07:56 | -28.50156 | 153.61351 | 9530 ft | 277 kts | 21° |
| 2026-04-26 07:56 | -28.48332 | 153.62024 | 9158 ft | 275 kts | 21° |
| 2026-04-26 07:57 | -28.46516 | 153.62696 | 8837 ft | 274 kts | 21° |
| 2026-04-26 07:57 | -28.44703 | 153.63373 | 8524 ft | 273 kts | 21° |
| 2026-04-26 07:57 | -28.42898 | 153.64052 | 8233 ft | 272 kts | 21° |
| 2026-04-26 07:57 | -28.41108 | 153.64725 | 7942 ft | 270 kts | 21° |
| 2026-04-26 07:58 | -28.39325 | 153.65396 | 7644 ft | 270 kts | 21° |
| 2026-04-26 07:58 | -28.37560 | 153.66043 | 7349 ft | 269 kts | 21° |
| 2026-04-26 07:58 | -28.35781 | 153.66687 | 7059 ft | 268 kts | 21° |
| 2026-04-26 07:58 | -28.33998 | 153.67333 | 6760 ft | 268 kts | 21° |
| 2026-04-26 07:59 | -28.32221 | 153.67977 | 6447 ft | 267 kts | 21° |
| 2026-04-26 07:59 | -28.30458 | 153.68616 | 6158 ft | 265 kts | 21° |
| 2026-04-26 07:59 | -28.28701 | 153.69080 | 6051 ft | 254 kts | 4° |
| 2026-04-26 07:59 | -28.27004 | 153.68696 | 5925 ft | 245 kts | 341° |
| 2026-04-26 08:00 | -28.25505 | 153.67918 | 5804 ft | 229 kts | 336° |
| 2026-04-26 08:00 | -28.24150 | 153.67136 | 5627 ft | 216 kts | 335° |
| 2026-04-26 08:00 | -28.22820 | 153.66370 | 5377 ft | 209 kts | 336° |
| 2026-04-26 08:00 | -28.21525 | 153.65635 | 5019 ft | 207 kts | 336° |
| 2026-04-26 08:01 | -28.20273 | 153.64932 | 4927 ft | 194 kts | 336° |
| 2026-04-26 08:01 | -28.19077 | 153.64265 | 4644 ft | 192 kts | 336° |
| 2026-04-26 08:01 | -28.17896 | 153.63610 | 4508 ft | 186 kts | 337° |
| 2026-04-26 08:01 | -28.16740 | 153.62970 | 4434 ft | 187 kts | 337° |
| 2026-04-26 08:02 | -28.15550 | 153.62311 | 4316 ft | 190 kts | 336° |
| 2026-04-26 08:02 | -28.14451 | 153.61474 | 4119 ft | 189 kts | 323° |
| 2026-04-26 08:02 | -28.13450 | 153.60540 | 3937 ft | 184 kts | 322° |
| 2026-04-26 08:02 | -28.12492 | 153.59645 | 3836 ft | 179 kts | 322° |
| 2026-04-26 08:03 | -28.11509 | 153.58737 | 3669 ft | 184 kts | 322° |
| 2026-04-26 08:03 | -28.10512 | 153.57820 | 3504 ft | 185 kts | 322° |
| 2026-04-26 08:03 | -28.09520 | 153.56910 | 3330 ft | 187 kts | 322° |
| 2026-04-26 08:03 | -28.08541 | 153.55918 | 3058 ft | 187 kts | 313° |
| 2026-04-26 08:04 | -28.07779 | 153.54744 | 2807 ft | 182 kts | 297° |
| 2026-04-26 08:04 | -28.07305 | 153.53439 | 2568 ft | 176 kts | 281° |
| 2026-04-26 08:04 | -28.07115 | 153.52104 | 2379 ft | 169 kts | 268° |
| 2026-04-26 08:04 | -28.07164 | 153.50821 | 2150 ft | 158 kts | 256° |
| 2026-04-26 08:05 | -28.07433 | 153.49648 | 1902 ft | 151 kts | 245° |
| 2026-04-26 08:05 | -28.07892 | 153.48611 | 1718 ft | 144 kts | 225° |
| 2026-04-26 08:05 | -28.08629 | 153.47873 | 1476 ft | 137 kts | 204° |
| 2026-04-26 08:05 | -28.09483 | 153.47443 | 1360 ft | 135 kts | 192° |
| 2026-04-26 08:06 | -28.10383 | 153.47272 | 1217 ft | 128 kts | 183° |
| 2026-04-26 08:06 | -28.11287 | 153.47299 | 1074 ft | 131 kts | 163° |
| 2026-04-26 08:06 | -28.12078 | 153.47819 | 942 ft | 128 kts | 144° |
| 2026-04-26 08:06 | -28.12814 | 153.48333 | 669 ft | 126 kts | 155° |
| 2026-04-26 08:07 | -28.13622 | 153.48782 | 455 ft | 133 kts | 155° |
| 2026-04-26 08:07 | -28.14425 | 153.49306 | 296 ft | 133 kts | 152° |
| 2026-04-26 08:07 | -28.15237 | 153.49816 | 163 ft | 134 kts | 155° |
| 2026-04-26 08:07 | -28.16059 | 153.50334 | 35 ft | 131 kts | 156° |
| 2026-04-26 08:08 | -28.16761 | 153.50780 | 27 ft | 96 kts | 149° |
| 2026-04-26 08:08 | -28.17155 | 153.51029 | 27 ft | 46 kts | 151° |
| 2026-04-26 08:08 | -28.17339 | 153.51148 | 27 ft | 22 kts | 150° |
| 2026-04-26 08:08 | -28.17457 | 153.51243 | 26 ft | 17 kts | 115° |
| 2026-04-26 08:09 | -28.17426 | 153.51349 | 26 ft | 12 kts | 59° |
| 2026-04-26 08:09 | -28.17365 | 153.51377 | 28 ft | 10 kts | 342° |
| 2026-04-26 08:09 | -28.17304 | 153.51339 | 27 ft | 10 kts | 329° |
| 2026-04-26 08:09 | -28.17244 | 153.51299 | 26 ft | 10 kts | 329° |
| 2026-04-26 08:10 | -28.17187 | 153.51260 | 28 ft | 10 kts | 330° |
| 2026-04-26 08:10 | -28.17129 | 153.51224 | 28 ft | 9 kts | 331° |
| 2026-04-26 08:10 | -28.17072 | 153.51189 | 28 ft | 10 kts | 331° |
| 2026-04-26 08:10 | -28.16996 | 153.51141 | 26 ft | 16 kts | 330° |
| 2026-04-26 08:11 | -28.16884 | 153.51099 | 27 ft | 19 kts | 25° |
| 2026-04-26 08:11 | -28.16769 | 153.51103 | 27 ft | 16 kts | 331° |
| 2026-04-26 08:11 | -28.16726 | 153.51075 | 26 ft | 9 kts | 330° |
| 2026-04-26 08:11 | -28.16697 | 153.51068 | 26 ft | 4 kts | 20° |
| 2026-04-26 08:12 | -28.16683 | 153.51099 | 28 ft | 5 kts | 68° |
| 2026-04-26 08:12 | -28.16662 | 153.51140 | 26 ft | 4 kts | 61° |
| 2026-04-26 08:12 | -28.16655 | 153.51155 | 27 ft | 2 kts | 60° |
| 2026-04-26 08:12 | -28.16652 | 153.51161 | 26 ft | 0 kts | 60° |